createdAt,value
2023-04-21T00:02:18.735Z,9.51
2023-04-21T00:04:45.966Z,9.44
2023-04-21T00:07:14.719Z,9.36
2023-04-21T00:09:41.600Z,9.30
2023-04-21T00:12:08.234Z,9.24
2023-04-21T00:14:34.905Z,9.16
2023-04-21T00:17:01.441Z,9.11
2023-04-21T00:19:29.764Z,9.06
2023-04-21T00:21:59.080Z,9.05
2023-04-21T00:24:26.230Z,9.03
2023-04-21T00:26:52.789Z,9.00
2023-04-21T00:29:19.590Z,8.98
2023-04-21T00:31:46.405Z,9.00
2023-04-21T00:34:13.012Z,8.99
2023-04-21T00:36:39.549Z,8.94
2023-04-21T00:39:06.314Z,8.90
2023-04-21T00:41:34.199Z,8.85
2023-04-21T00:44:00.800Z,8.81
2023-04-21T00:46:27.749Z,8.78
2023-04-21T00:48:54.393Z,8.76
2023-04-21T00:51:20.989Z,8.76
2023-04-21T00:53:47.660Z,8.76
2023-04-21T00:56:14.444Z,8.73
2023-04-21T00:58:42.487Z,8.72
2023-04-21T01:01:09.085Z,8.71
2023-04-21T01:03:35.887Z,8.71
2023-04-21T01:06:02.806Z,8.72
2023-04-21T01:08:29.371Z,8.72
2023-04-21T01:10:55.873Z,8.70
2023-04-21T01:13:22.522Z,8.68
2023-04-21T01:15:49.231Z,8.65
2023-04-21T01:18:17.090Z,8.60
2023-04-21T01:20:44.797Z,8.58
2023-04-21T01:23:11.345Z,8.56
2023-04-21T01:25:37.936Z,8.53
2023-04-21T01:28:04.585Z,8.53
2023-04-21T01:30:31.118Z,8.52
2023-04-21T01:32:58.765Z,8.54
2023-04-21T01:35:25.397Z,8.54
2023-04-21T01:37:51.993Z,8.51
2023-04-21T01:40:18.551Z,8.48
2023-04-21T01:42:45.228Z,8.46
2023-04-21T01:45:11.904Z,8.44
2023-04-21T01:47:38.538Z,8.41
2023-04-21T01:50:05.418Z,8.38
2023-04-21T01:52:32.079Z,8.38
2023-04-21T01:54:58.734Z,8.37
2023-04-21T01:57:25.253Z,8.33
2023-04-21T01:59:51.810Z,8.31
2023-04-21T02:02:18.512Z,8.26
2023-04-21T02:04:45.262Z,8.23
2023-04-21T02:07:11.866Z,8.21
2023-04-21T02:09:38.478Z,8.20
2023-04-21T02:12:05.192Z,8.17
2023-04-21T02:14:31.814Z,8.16
2023-04-21T02:16:58.453Z,8.14
2023-04-21T02:19:25.152Z,8.13
2023-04-21T02:21:51.753Z,8.12
2023-04-21T02:24:18.394Z,8.09
2023-04-21T02:26:44.948Z,8.06
2023-04-21T02:29:11.560Z,8.06
2023-04-21T02:31:49.768Z,8.03
2023-04-21T02:34:24.291Z,8.03
2023-04-21T02:36:50.848Z,8.03
2023-04-21T02:39:17.685Z,8.03
2023-04-21T02:41:44.432Z,8.02
2023-04-21T02:44:11.029Z,8.02
2023-04-21T02:46:40.185Z,8.04
2023-04-21T02:49:06.801Z,8.03
2023-04-21T02:51:33.460Z,8.03
2023-04-21T02:54:00.085Z,8.05
2023-04-21T02:56:26.700Z,8.10
2023-04-21T02:58:53.275Z,8.16
2023-04-21T03:01:19.960Z,8.21
2023-04-21T03:03:46.693Z,8.23
2023-04-21T03:06:13.386Z,8.23
2023-04-21T03:08:40.054Z,8.28
2023-04-21T03:11:06.641Z,8.42
2023-04-21T03:13:33.228Z,8.48
2023-04-21T03:15:59.797Z,8.45
2023-04-21T03:18:26.496Z,8.50
2023-04-21T03:20:53.244Z,8.47
2023-04-21T03:23:19.860Z,8.46
2023-04-21T03:25:46.482Z,8.45
2023-04-21T03:28:13.609Z,8.48
2023-04-21T03:30:40.399Z,8.52
2023-04-21T03:33:07.032Z,8.58
2023-04-21T03:35:34.460Z,8.59
2023-04-21T03:38:03.244Z,8.63
2023-04-21T03:40:30.620Z,8.66
2023-04-21T03:42:57.178Z,8.67
2023-04-21T03:45:24.199Z,8.75
2023-04-21T03:47:55.197Z,8.79
2023-04-21T03:50:21.875Z,8.81
2023-04-21T03:52:48.419Z,8.82
2023-04-21T03:55:14.982Z,8.85
2023-04-21T03:57:42.121Z,8.83
2023-04-21T04:00:10.539Z,8.86
2023-04-21T04:02:37.421Z,8.89
2023-04-21T04:05:05.280Z,8.91
2023-04-21T04:07:32.415Z,8.92
2023-04-21T04:09:59.126Z,8.97
2023-04-21T04:12:25.859Z,9.00
2023-04-21T04:14:52.434Z,9.08
2023-04-21T04:17:18.965Z,9.10
2023-04-21T04:19:45.563Z,9.12
2023-04-21T04:22:12.248Z,9.15
2023-04-21T04:24:38.795Z,9.18
2023-04-21T04:27:05.720Z,9.22
2023-04-21T04:29:32.689Z,9.30
2023-04-21T04:32:01.550Z,9.35
2023-04-21T04:34:28.104Z,9.36
2023-04-21T04:36:54.675Z,9.41
2023-04-21T04:39:22.287Z,9.43
2023-04-21T04:41:49.434Z,9.44
2023-04-21T04:44:18.077Z,9.50
2023-04-21T04:46:45.630Z,9.49
2023-04-21T04:49:12.204Z,9.51
2023-04-21T04:51:38.714Z,9.61
2023-04-21T04:54:05.914Z,9.61
2023-04-21T04:56:33.024Z,9.62
2023-04-21T04:58:59.613Z,9.70
2023-04-21T05:01:30.315Z,9.66
2023-04-21T05:03:57.437Z,9.71
2023-04-21T05:06:24.079Z,9.76
2023-04-21T05:08:50.627Z,9.78
2023-04-21T05:11:17.231Z,9.85
2023-04-21T05:13:43.914Z,9.86
2023-04-21T05:16:11.388Z,9.88
2023-04-21T05:18:38.167Z,9.94
2023-04-21T05:21:04.797Z,10.05
2023-04-21T05:23:31.427Z,10.07
2023-04-21T05:25:57.979Z,10.05
2023-04-21T05:28:24.582Z,10.12
2023-04-21T05:30:51.132Z,10.20
2023-04-21T05:33:21.270Z,10.23
2023-04-21T05:35:47.844Z,10.31
2023-04-21T05:38:14.462Z,10.36
2023-04-21T05:40:41.103Z,10.39
2023-04-21T05:43:07.657Z,10.45
2023-04-21T05:45:34.165Z,10.54
2023-04-21T05:48:00.733Z,10.57
2023-04-21T05:50:33.935Z,10.60
2023-04-21T05:53:00.534Z,10.63
2023-04-21T05:55:27.095Z,10.72
2023-04-21T05:57:53.669Z,10.78
2023-04-21T06:00:20.355Z,10.82
2023-04-21T06:02:46.986Z,10.89
2023-04-21T06:05:13.704Z,11.01
2023-04-21T06:07:40.283Z,11.15
2023-04-21T06:10:07.232Z,11.16
2023-04-21T06:12:33.855Z,11.19
2023-04-21T06:15:00.567Z,11.25
2023-04-21T06:17:27.169Z,11.28
2023-04-21T06:19:53.862Z,11.35
2023-04-21T06:22:20.950Z,11.44
2023-04-21T06:24:47.558Z,11.54
2023-04-21T06:27:14.610Z,11.57
2023-04-21T06:29:42.723Z,11.60
2023-04-21T06:32:09.805Z,11.62
2023-04-21T06:34:36.462Z,11.65
2023-04-21T06:37:03.058Z,11.78
2023-04-21T06:39:29.612Z,11.84
2023-04-21T06:41:58.155Z,11.84
2023-04-21T06:44:24.767Z,11.85
2023-04-21T06:46:51.513Z,11.88
2023-04-21T06:49:18.290Z,11.97
2023-04-21T06:51:45.066Z,12.05
2023-04-21T06:54:11.598Z,12.09
2023-04-21T06:56:38.266Z,12.12
2023-04-21T06:59:04.871Z,12.20
2023-04-21T07:01:31.563Z,12.30
2023-04-21T07:03:58.359Z,12.31
2023-04-21T07:06:25.088Z,12.31
2023-04-21T07:08:51.694Z,12.36
2023-04-21T07:11:18.279Z,12.40
2023-04-21T07:13:45.080Z,12.42
2023-04-21T07:16:11.671Z,12.47
2023-04-21T07:18:39.540Z,12.53
2023-04-21T07:21:06.666Z,12.54
2023-04-21T07:23:33.275Z,12.61
2023-04-21T07:25:59.978Z,12.69
2023-04-21T07:28:26.721Z,12.75
2023-04-21T07:30:53.355Z,12.84
2023-04-21T07:33:19.912Z,12.84
2023-04-21T07:35:46.586Z,12.73
2023-04-21T07:38:13.156Z,12.70
2023-04-21T07:40:39.693Z,12.78
2023-04-21T07:43:06.294Z,12.83
2023-04-21T07:45:32.895Z,12.84
2023-04-21T07:47:59.613Z,12.89
2023-04-21T07:50:26.473Z,12.93
2023-04-21T07:52:53.075Z,12.97
2023-04-21T07:55:19.713Z,12.99
2023-04-21T07:57:46.900Z,12.98
2023-04-21T08:00:13.801Z,13.05
2023-04-21T08:02:40.513Z,13.11
2023-04-21T08:05:07.538Z,13.18
2023-04-21T08:07:34.357Z,13.23
2023-04-21T08:10:00.894Z,13.22
2023-04-21T08:12:27.453Z,13.20
2023-04-21T08:14:55.632Z,13.22
2023-04-21T08:17:22.307Z,13.09
2023-04-21T08:19:48.935Z,13.00
2023-04-21T08:22:15.460Z,12.99
2023-04-21T08:24:42.076Z,13.00
2023-04-21T08:27:08.669Z,13.11
2023-04-21T08:29:35.303Z,13.22
2023-04-21T08:32:01.974Z,13.30
2023-04-21T08:34:28.882Z,13.47
2023-04-21T08:36:55.693Z,13.50
2023-04-21T08:39:22.566Z,13.53
2023-04-21T08:41:49.751Z,13.45
2023-04-21T08:44:16.386Z,13.35
2023-04-21T08:46:44.804Z,13.29
2023-04-21T08:49:12.793Z,13.20
2023-04-21T08:51:40.260Z,13.13
2023-04-21T08:54:06.840Z,13.13
2023-04-21T08:56:34.015Z,13.22
2023-04-21T08:59:08.180Z,13.34
2023-04-21T09:01:54.691Z,13.24
2023-04-21T09:04:24.063Z,13.18
2023-04-21T09:06:50.910Z,13.24
2023-04-21T09:09:17.544Z,13.40
2023-04-21T09:11:44.231Z,13.48
2023-04-21T09:14:11.427Z,13.53
2023-04-21T09:16:38.007Z,13.52
2023-04-21T09:19:13.611Z,13.47
2023-04-21T09:21:43.887Z,13.45
2023-04-21T09:24:10.534Z,13.31
2023-04-21T09:26:37.168Z,13.38
2023-04-21T09:29:06.490Z,13.31
2023-04-21T09:31:35.308Z,13.44
2023-04-21T09:34:02.140Z,13.60
2023-04-21T09:36:30.515Z,13.76
2023-04-21T09:39:20.638Z,13.87
2023-04-21T09:41:45.068Z,13.99
2023-04-21T09:44:11.837Z,14.11
2023-04-21T09:46:38.595Z,14.19
2023-04-21T09:49:06.070Z,14.06
2023-04-21T09:52:02.164Z,13.99
2023-04-21T09:56:53.151Z,14.21
2023-04-21T09:59:25.082Z,14.47
2023-04-21T10:01:53.482Z,14.65
2023-04-21T10:04:21.545Z,14.54
2023-04-21T10:06:48.836Z,14.51
2023-04-21T10:09:18.405Z,14.56
2023-04-21T10:11:45.141Z,14.48
2023-04-21T10:14:11.739Z,14.50
2023-04-21T10:16:38.549Z,14.57
2023-04-21T10:19:25.101Z,15.05
2023-04-21T10:21:51.878Z,15.96
2023-04-21T10:24:18.966Z,16.71
2023-04-21T10:26:45.859Z,17.67
2023-04-21T10:29:12.491Z,18.65
2023-04-21T10:31:51.968Z,19.60
2023-04-21T10:34:22.500Z,20.28
2023-04-21T10:36:51.824Z,20.85
2023-04-21T10:39:28.384Z,20.98
2023-04-21T10:42:20.770Z,21.50
2023-04-21T10:44:54.583Z,22.69
2023-04-21T10:47:37.066Z,23.78
2023-04-21T10:50:13.255Z,24.55
2023-04-21T10:52:40.032Z,25.11
2023-04-21T10:55:06.949Z,24.52
2023-04-21T10:57:34.541Z,24.08
2023-04-21T11:00:01.538Z,23.19
2023-04-21T11:02:31.404Z,22.46
2023-04-21T11:04:59.147Z,21.39
2023-04-21T11:07:26.178Z,21.66
2023-04-21T11:10:00.004Z,22.71
2023-04-21T11:12:28.228Z,23.50
2023-04-21T11:14:54.909Z,24.07
2023-04-21T11:17:23.261Z,24.08
2023-04-21T11:19:56.675Z,24.12
2023-04-21T11:22:23.997Z,24.89
2023-04-21T11:24:54.351Z,24.46
2023-04-21T11:27:22.392Z,24.12
2023-04-21T11:29:50.090Z,24.36
2023-04-21T11:32:17.082Z,25.31
2023-04-21T11:34:43.780Z,25.04
2023-04-21T11:37:14.117Z,23.77
2023-04-21T11:39:41.240Z,22.92
2023-04-21T11:42:07.845Z,22.62
2023-04-21T11:44:41.872Z,22.53
2023-04-21T11:47:15.322Z,21.96
2023-04-21T11:49:49.239Z,22.28
2023-04-21T11:52:23.068Z,22.35
2023-04-21T11:54:54.429Z,22.30
2023-04-21T11:57:22.403Z,22.45
2023-04-21T11:59:49.078Z,22.86
2023-04-21T12:02:26.451Z,23.01
2023-04-21T12:05:00.313Z,22.20
2023-04-21T12:07:27.416Z,22.08
2023-04-21T12:09:54.050Z,21.82
2023-04-21T12:12:22.175Z,21.61
2023-04-21T12:14:49.521Z,22.19
2023-04-21T12:17:16.139Z,22.66
2023-04-21T12:19:43.047Z,22.12
2023-04-21T12:22:10.711Z,21.40
2023-04-21T12:24:37.698Z,20.89
2023-04-21T12:27:04.906Z,20.23
2023-04-21T12:29:31.537Z,19.44
2023-04-21T12:31:58.200Z,19.27
2023-04-21T12:34:24.836Z,19.21
2023-04-21T12:36:51.402Z,19.41
2023-04-21T12:39:18.988Z,20.46
2023-04-21T12:41:47.402Z,21.44
2023-04-21T12:44:14.765Z,22.57
2023-04-21T12:46:41.568Z,23.68
2023-04-21T12:49:09.087Z,23.73
2023-04-21T12:51:35.695Z,23.64
2023-04-21T12:54:02.625Z,23.85
2023-04-21T12:56:30.014Z,23.73
2023-04-21T12:58:57.293Z,22.72
2023-04-21T13:01:24.345Z,21.48
2023-04-21T13:03:51.053Z,20.51
2023-04-21T13:06:17.928Z,19.55
2023-04-21T13:08:44.508Z,18.99
2023-04-21T13:11:11.163Z,18.88
2023-04-21T13:13:39.024Z,19.25
2023-04-21T13:16:05.881Z,19.67
2023-04-21T13:18:34.871Z,19.44
2023-04-21T13:21:01.830Z,19.07
2023-04-21T13:23:28.803Z,19.33
2023-04-21T13:25:55.802Z,19.43
2023-04-21T13:28:22.894Z,19.70
2023-04-21T13:30:50.852Z,19.94
2023-04-21T13:33:17.520Z,20.38
2023-04-21T13:35:44.049Z,20.45
2023-04-21T13:38:10.697Z,20.85
2023-04-21T13:40:37.342Z,20.77
2023-04-21T13:43:04.041Z,20.40
2023-04-21T13:45:31.366Z,20.78
2023-04-21T13:48:01.244Z,21.41
2023-04-21T13:50:27.871Z,21.78
2023-04-21T13:52:54.440Z,21.47
2023-04-21T13:55:21.436Z,21.23
2023-04-21T13:57:48.062Z,21.19
2023-04-21T14:00:15.046Z,21.41
2023-04-21T14:02:42.130Z,21.76
2023-04-21T14:05:09.092Z,22.26
2023-04-21T14:07:36.597Z,22.22
2023-04-21T14:10:04.440Z,22.36
2023-04-21T14:12:31.188Z,22.51
2023-04-21T14:14:57.795Z,22.57
2023-04-21T14:17:24.485Z,22.38
2023-04-21T14:19:52.598Z,22.41
2023-04-21T14:22:21.041Z,21.99
2023-04-21T14:24:47.720Z,21.37
2023-04-21T14:27:14.290Z,21.36
2023-04-21T14:29:40.946Z,21.59
2023-04-21T14:32:07.835Z,21.73
2023-04-21T14:34:34.448Z,22.13
2023-04-21T14:37:01.071Z,22.40
2023-04-21T14:39:27.697Z,22.19
2023-04-21T14:41:54.301Z,21.97
2023-04-21T14:44:20.956Z,21.90
2023-04-21T14:46:57.014Z,21.51
2023-04-21T14:49:32.843Z,20.55
2023-04-21T14:51:59.740Z,20.22
2023-04-21T14:54:26.474Z,20.57
2023-04-21T14:57:00.447Z,20.69
2023-04-21T14:59:33.851Z,20.35
2023-04-21T15:02:00.862Z,20.32
2023-04-21T15:04:27.815Z,19.61
2023-04-21T15:06:54.708Z,19.49
2023-04-21T15:09:21.655Z,19.08
2023-04-21T15:11:48.355Z,18.65
2023-04-21T15:14:14.930Z,18.09
2023-04-21T15:16:41.588Z,17.44
2023-04-21T15:19:08.345Z,17.35
2023-04-21T15:21:34.900Z,17.48
2023-04-21T15:24:01.486Z,17.46
2023-04-21T15:26:30.333Z,17.34
2023-04-21T15:28:57.585Z,17.32
2023-04-21T15:31:24.271Z,17.34
2023-04-21T15:33:50.954Z,16.86
2023-04-21T15:36:17.504Z,16.67
2023-04-21T15:38:45.018Z,16.40
2023-04-21T15:41:11.800Z,16.31
2023-04-21T15:43:38.425Z,16.27
2023-04-21T15:46:12.995Z,16.05
2023-04-21T15:48:41.276Z,15.74
2023-04-21T15:51:08.293Z,15.73
2023-04-21T15:53:35.639Z,15.56
2023-04-21T15:56:02.252Z,15.48
2023-04-21T15:58:28.757Z,15.22
2023-04-21T16:00:55.347Z,15.20
2023-04-21T16:03:22.658Z,15.09
2023-04-21T16:05:49.477Z,15.02
2023-04-21T16:08:16.258Z,15.02
2023-04-21T16:10:42.913Z,15.02
2023-04-21T16:13:10.215Z,15.03
2023-04-21T16:15:36.923Z,14.97
2023-04-21T16:18:06.499Z,14.94
2023-04-21T16:20:33.256Z,14.88
2023-04-21T16:22:59.933Z,14.90
2023-04-21T16:25:27.252Z,14.94
2023-04-21T16:27:54.016Z,14.96
2023-04-21T16:30:20.720Z,14.93
2023-04-21T16:32:47.347Z,14.89
2023-04-21T16:35:14.005Z,14.80
2023-04-21T16:37:42.751Z,14.75
2023-04-21T16:40:09.929Z,14.70
2023-04-21T16:42:36.625Z,14.63
2023-04-21T16:45:04.553Z,14.63
2023-04-21T16:47:34.118Z,14.57
2023-04-21T16:50:00.920Z,14.48
2023-04-21T16:52:27.956Z,14.49
2023-04-21T16:54:54.627Z,14.44
2023-04-21T16:57:23.846Z,14.38
2023-04-21T16:59:51.505Z,14.32
2023-04-21T17:02:18.253Z,14.21
2023-04-21T17:04:44.891Z,14.17
2023-04-21T17:07:11.492Z,14.13
2023-04-21T17:09:38.206Z,14.06
2023-04-21T17:12:04.932Z,14.03
2023-04-21T17:14:31.526Z,13.98
2023-04-21T17:16:59.060Z,13.94
2023-04-21T17:19:25.751Z,13.89
2023-04-21T17:21:52.315Z,13.85
2023-04-21T17:24:18.959Z,13.85
2023-04-21T17:26:45.510Z,13.87
2023-04-21T17:29:12.126Z,13.83
2023-04-21T17:31:38.734Z,13.79
2023-04-21T17:34:05.443Z,13.76
2023-04-21T17:36:32.249Z,13.67
2023-04-21T17:38:59.154Z,13.62
2023-04-21T17:41:26.322Z,13.59
2023-04-21T17:43:54.872Z,13.60
2023-04-21T17:46:24.766Z,13.64
2023-04-21T17:48:51.910Z,13.60
2023-04-21T17:51:19.369Z,13.57
2023-04-21T17:53:49.225Z,13.52
2023-04-21T17:56:15.874Z,13.50
2023-04-21T17:58:42.444Z,13.50
2023-04-21T18:01:09.181Z,13.51
2023-04-21T18:03:41.331Z,13.48
2023-04-21T18:06:09.945Z,13.47
2023-04-21T18:08:37.167Z,13.41
2023-04-21T18:11:03.745Z,13.36
2023-04-21T18:13:30.731Z,13.28
2023-04-21T18:15:57.902Z,13.25
2023-04-21T18:18:24.744Z,13.22
2023-04-21T18:20:51.458Z,13.17
2023-04-21T18:23:18.098Z,13.17
2023-04-21T18:25:44.694Z,13.14
2023-04-21T18:28:12.854Z,13.14
2023-04-21T18:30:39.886Z,13.11
2023-04-21T18:33:06.545Z,13.10
2023-04-21T18:35:34.288Z,13.08
2023-04-21T18:38:01.261Z,13.05
2023-04-21T18:40:28.256Z,13.07
2023-04-21T18:42:55.710Z,13.01
2023-04-21T18:45:22.526Z,12.94
2023-04-21T18:47:49.197Z,12.90
2023-04-21T18:50:16.098Z,12.88
2023-04-21T18:52:42.778Z,12.85
2023-04-21T18:55:09.618Z,12.83
2023-04-21T19:00:26.850Z,12.84
2023-04-21T19:02:53.824Z,12.79
2023-04-21T19:05:20.645Z,12.76
2023-04-21T19:07:47.515Z,12.77
2023-04-21T19:10:14.049Z,12.72
2023-04-21T19:12:41.764Z,12.64
2023-04-21T19:15:08.615Z,12.58
2023-04-21T19:17:35.660Z,12.56
2023-04-21T19:20:02.342Z,12.52
2023-04-21T19:22:32.060Z,12.44
2023-04-21T19:24:58.710Z,12.39
2023-04-21T19:27:27.958Z,12.38
2023-04-21T19:29:54.664Z,12.32
2023-04-21T19:32:21.571Z,12.29
2023-04-21T19:34:48.250Z,12.25
2023-04-21T19:37:15.300Z,12.19
2023-04-21T19:39:42.172Z,12.17
2023-04-21T19:42:08.799Z,12.16
2023-04-21T19:44:35.777Z,12.14
2023-04-21T19:47:02.614Z,12.11
2023-04-21T19:49:29.231Z,12.09
2023-04-21T19:51:56.189Z,12.06
2023-04-21T19:54:22.741Z,12.01
2023-04-21T19:56:49.755Z,11.99
2023-04-21T19:59:16.364Z,12.00
2023-04-21T20:01:43.064Z,11.99
2023-04-21T20:04:12.025Z,11.96
2023-04-21T20:06:40.008Z,11.95
2023-04-21T20:09:06.606Z,11.94
2023-04-21T20:11:34.210Z,11.91
2023-04-21T20:14:00.926Z,11.89
2023-04-21T20:16:27.754Z,11.85
2023-04-21T20:18:55.667Z,11.83
2023-04-21T20:21:22.345Z,11.79
2023-04-21T20:23:48.969Z,11.81
2023-04-21T20:26:16.974Z,11.80
2023-04-21T20:28:43.552Z,11.77
2023-04-21T20:31:10.229Z,11.73
2023-04-21T20:33:36.873Z,11.72
2023-04-21T20:36:07.330Z,11.72
2023-04-21T20:38:34.933Z,11.71
2023-04-21T20:41:02.195Z,11.71
2023-04-21T20:43:28.959Z,11.69
2023-04-21T20:45:55.549Z,11.64
2023-04-21T20:48:22.265Z,11.61
2023-04-21T20:50:51.235Z,11.59
2023-04-21T20:53:18.300Z,11.54
2023-04-21T20:55:44.856Z,11.55
2023-04-21T20:58:11.476Z,11.57
2023-04-21T21:00:38.186Z,11.55
2023-04-21T21:03:09.950Z,11.52
2023-04-21T21:05:37.469Z,11.49
2023-04-21T21:08:04.562Z,11.46
2023-04-21T21:10:31.266Z,11.45
2023-04-21T21:12:59.466Z,11.41
2023-04-21T21:15:26.990Z,11.41
2023-04-21T21:17:53.615Z,11.40
2023-04-21T21:20:20.285Z,11.38
2023-04-21T21:22:47.076Z,11.36
2023-04-21T21:25:13.639Z,11.32
2023-04-21T21:27:40.297Z,11.26
2023-04-21T21:30:07.222Z,11.20
2023-04-21T21:32:33.814Z,11.14
2023-04-21T21:35:00.438Z,11.10
2023-04-21T21:37:27.018Z,11.04
2023-04-21T21:39:55.296Z,10.99
2023-04-21T21:42:22.534Z,10.95
2023-04-21T21:44:49.157Z,10.91
2023-04-21T21:47:17.454Z,10.91
2023-04-21T21:49:44.293Z,10.92
2023-04-21T21:52:11.054Z,10.89
2023-04-21T21:54:37.659Z,10.86
2023-04-21T21:57:04.335Z,10.82
2023-04-21T21:59:31.072Z,10.78
2023-04-21T22:01:57.774Z,10.74
2023-04-21T22:04:24.488Z,10.71
2023-04-21T22:06:51.997Z,10.68
2023-04-21T22:09:18.621Z,10.66
2023-04-21T22:11:46.275Z,10.65
2023-04-21T22:14:22.878Z,10.62
2023-04-21T22:16:50.732Z,10.62
2023-04-21T22:19:18.977Z,10.59
2023-04-21T22:21:45.909Z,10.59
2023-04-21T22:24:12.949Z,10.58
2023-04-21T22:26:39.755Z,10.57
2023-04-21T22:29:06.400Z,10.55
2023-04-21T22:31:33.076Z,10.54
2023-04-21T22:33:59.746Z,10.50
2023-04-21T22:36:26.296Z,10.48
2023-04-21T22:38:52.894Z,10.45
2023-04-21T22:41:19.679Z,10.42
2023-04-21T22:43:46.251Z,10.39
2023-04-21T22:46:12.935Z,10.36
2023-04-21T22:48:39.763Z,10.34
2023-04-21T22:51:07.333Z,10.33
2023-04-21T22:53:33.962Z,10.34
2023-04-21T22:56:00.604Z,10.38
2023-04-21T22:58:27.238Z,10.38
2023-04-21T23:00:54.096Z,10.39
2023-04-21T23:03:20.959Z,10.34
2023-04-21T23:05:47.779Z,10.31
2023-04-21T23:08:14.425Z,10.29
2023-04-21T23:10:41.035Z,10.24
2023-04-21T23:13:07.588Z,10.19
2023-04-21T23:15:34.148Z,10.16
2023-04-21T23:18:00.914Z,10.15
2023-04-21T23:20:27.631Z,10.13
2023-04-21T23:22:54.213Z,10.09
2023-04-21T23:25:20.839Z,10.06
2023-04-21T23:27:47.369Z,10.01
2023-04-21T23:30:14.290Z,9.98
2023-04-21T23:32:41.436Z,9.96
2023-04-21T23:35:09.530Z,9.94
2023-04-21T23:37:36.179Z,9.91
2023-04-21T23:40:03.137Z,9.90
2023-04-21T23:42:29.808Z,9.89
2023-04-21T23:44:56.560Z,10.00
2023-04-21T23:47:23.136Z,9.94
2023-04-21T23:49:49.755Z,9.93
2023-04-21T23:52:16.239Z,9.86
2023-04-21T23:54:42.829Z,9.72
2023-04-21T23:57:09.507Z,9.63
2023-04-21T23:59:36.324Z,9.56
